Celtic Spirit — MSGH4 — position and weather

sailwx.info

Track history (hours):
 
Tides and Currents Weather Stations Pressure Air Temp Water Temp Dewpoint Dewpoint Depression Visibility Wind Speed Wind Dir Waves Ship Positions

Celtic Spirit

Last reported at 2014-Jun-13 11:33 UTC. Time now 2014-Aug-20 12:43 UTC.
Position N 37°31' W 008°56'.
Warning: this ship's position is months out of date.

Length 20 m.

Type: Pleasure craft. MMSI: 235010910.

Date/timePositionNaut miles runAvg speedWind from/ knotsBaromVisibWave heightAir tempDewpointWater temp
2014-Jun-13 11:33N 37°31' W 008°56'8 8.3
2014-Jun-13 10:33N 37°39' W 008°55'8 8.2
2014-Jun-13 09:33N 37°47' W 008°54'8 7.9
2014-Jun-13 08:33N 37°55' W 008°53'2 2.3
2014-Jun-13 07:31N 37°57' W 008°52'0 0.0
2014-Jun-13 06:31N 37°57' W 008°52'0 0.0
2014-Jun-13 05:28N 37°57' W 008°52'0 0.0
2014-Jun-13 04:31N 37°57' W 008°52'0 0.0
2014-Jun-13 03:31N 37°57' W 008°52'0 0.0
2014-Jun-13 02:31N 37°57' W 008°52'0 0.0
2014-Jun-13 01:31N 37°57' W 008°52'0 0.0
2014-Jun-13 00:31N 37°57' W 008°52'0 0.0
2014-Jun-12 23:31N 37°57' W 008°52'0 0.0
2014-Jun-12 22:31N 37°57' W 008°52'0 0.0
2014-Jun-12 21:28N 37°57' W 008°52'0 0.0
2014-Jun-12 20:31N 37°57' W 008°52'0 0.0
2014-Jun-12 19:31N 37°57' W 008°52'0 0.0
2014-Jun-12 18:31N 37°57' W 008°52'0 0.0
2014-Jun-12 17:31N 37°57' W 008°52'2 2.2
2014-Jun-12 16:32N 37°57' W 008°55'6 6.0
2014-Jun-12 15:33N 37°59' W 009°02'6 6.2
2014-Jun-12 14:33N 38°03' W 009°08'9 8.9
2014-Jun-12 13:33N 38°11' W 009°11'9 8.9
2014-Jun-12 12:33N 38°19' W 009°15'22 1.1
2014-Jun-11 17:34N 38°41' W 009°16'4 4.3
2014-Jun-11 16:33N 38°42' W 009°10'0 0.0
2014-Jun-11 15:33N 38°42' W 009°10'0 0.0
2014-Jun-11 14:33N 38°42' W 009°10'0 0.0
2014-Jun-11 13:33N 38°42' W 009°10'0 0.0
2014-Jun-11 12:33N 38°42' W 009°10'0 0.0
2014-Jun-11 11:33N 38°42' W 009°10'0 0.0
2014-Jun-11 10:33N 38°42' W 009°10'0 0.0
2014-Jun-11 09:33N 38°42' W 009°10'0 0.0
2014-Jun-11 08:33N 38°42' W 009°10'0 0.0
2014-Jun-11 07:30N 38°42' W 009°10'0 0.0
2014-Jun-11 06:33N 38°42' W 009°10'0 0.0
2014-Jun-11 05:33N 38°42' W 009°10'0 0.0
2014-Jun-11 04:33N 38°42' W 009°10'0 0.0
2014-Jun-11 03:33N 38°42' W 009°10'0 0.0
2014-Jun-11 02:33N 38°42' W 009°10'0 0.0
2014-Jun-11 01:33N 38°42' W 009°10'0 0.0
2014-Jun-11 00:33N 38°42' W 009°10'0 0.0
2014-Jun-10 23:33N 38°42' W 009°10'0 0.0
2014-Jun-10 22:30N 38°42' W 009°10'0 0.0
2014-Jun-10 21:33N 38°42' W 009°10'0 0.0
2014-Jun-10 20:33N 38°42' W 009°10'0 0.0
2014-Jun-10 19:33N 38°42' W 009°10'0 0.0
2014-Jun-10 18:33N 38°42' W 009°10'0 0.0
2014-Jun-10 17:33N 38°42' W 009°10'0 0.0
2014-Jun-10 16:33N 38°42' W 009°10'0 0.0
2014-Jun-10 15:33N 38°42' W 009°10'0 0.0
2014-Jun-10 14:33N 38°42' W 009°10'0 0.0
2014-Jun-10 13:33N 38°42' W 009°10'0 0.0
2014-Jun-10 12:33N 38°42' W 009°10'0 0.0
2014-Jun-10 11:33N 38°42' W 009°10'0 0.0
2014-Jun-10 10:33N 38°42' W 009°10'0 0.0
2014-Jun-10 09:33N 38°42' W 009°10'0 0.0
2014-Jun-10 08:33N 38°42' W 009°10'0 0.0
2014-Jun-10 07:33N 38°42' W 009°10'0 0.0
2014-Jun-10 06:33N 38°42' W 009°10'0 0.0
2014-Jun-10 03:33N 38°42' W 009°10'0 0.0
2014-Jun-10 02:33N 38°42' W 009°10'0 0.0
2014-Jun-10 01:33N 38°42' W 009°10'0 0.0
2014-Jun-10 00:33N 38°42' W 009°10'0 0.0
2014-Jun-09 23:33N 38°42' W 009°10'0 0.0
2014-Jun-09 22:33N 38°42' W 009°10'0 0.0
2014-Jun-09 21:33N 38°42' W 009°10'0 0.0
2014-Jun-09 20:33N 38°42' W 009°10'0 0.0
2014-Jun-09 19:33N 38°42' W 009°10'0 0.0
2014-Jun-09 18:33N 38°42' W 009°10'0 0.0
2014-Jun-09 17:33N 38°42' W 009°10'0 0.0
2014-Jun-09 16:33N 38°42' W 009°10'0 0.0
2014-Jun-09 15:33N 38°42' W 009°10'0 0.0
2014-Jun-09 14:33N 38°42' W 009°10'0 0.0
2014-Jun-09 13:33N 38°42' W 009°10'0 0.0
2014-Jun-09 12:33N 38°42' W 009°10'0 0.0
2014-Jun-09 11:33N 38°42' W 009°10'0 0.0
2014-Jun-09 10:33N 38°42' W 009°10'0 0.0
2014-Jun-09 09:34N 38°42' W 009°10'0 0.0
2014-Jun-09 08:33N 38°42' W 009°10'0 0.0
2014-Jun-09 07:33N 38°42' W 009°10'0 0.0
2014-Jun-09 06:34N 38°42' W 009°10'0 0.0
2014-Jun-09 05:34N 38°42' W 009°10'0 0.0
2014-Jun-09 04:34N 38°42' W 009°10'0 0.0
2014-Jun-09 03:34N 38°42' W 009°10'0 0.0
2014-Jun-09 02:34N 38°42' W 009°10'0 0.0
2014-Jun-09 01:31N 38°42' W 009°10'0 0.0
2014-Jun-09 00:31N 38°42' W 009°10'0 0.0
2014-Jun-08 23:31N 38°42' W 009°10'0 0.0
2014-Jun-08 22:31N 38°42' W 009°10'0 0.0
2014-Jun-08 21:31N 38°42' W 009°10'0 0.0
2014-Jun-08 20:31N 38°42' W 009°10'0 0.0
2014-Jun-08 19:31N 38°42' W 009°10'0 0.0
2014-Jun-08 18:31N 38°42' W 009°10'0 0.0
2014-Jun-08 17:31N 38°42' W 009°10'0 0.0
2014-Jun-08 16:31N 38°42' W 009°10'0 0.0
2014-Jun-08 15:31N 38°42' W 009°10'0 0.0
2014-Jun-08 14:31N 38°42' W 009°10'0 0.0
2014-Jun-08 13:28N 38°42' W 009°10'0 0.0
2014-Jun-08 12:31N 38°42' W 009°10'0 0.0
2014-Jun-08 11:31N 38°42' W 009°10'0 0.0
2014-Jun-08 10:31N 38°42' W 009°10'0 0.0
2014-Jun-08 09:31N 38°42' W 009°10'0 0.0
2014-Jun-08 08:28N 38°42' W 009°10'0 0.0
2014-Jun-08 07:31N 38°42' W 009°10'0 0.0
2014-Jun-08 06:31N 38°42' W 009°10'0 0.0
2014-Jun-08 05:31N 38°42' W 009°10'0 0.0
2014-Jun-08 04:31N 38°42' W 009°10'0 0.0
2014-Jun-08 03:31N 38°42' W 009°10'0 0.0
2014-Jun-08 02:31N 38°42' W 009°10'0 0.0
2014-Jun-08 01:31N 38°42' W 009°10'0 0.0
2014-Jun-08 00:31N 38°42' W 009°10'0 0.0
2014-Jun-07 23:31N 38°42' W 009°10'0 0.0
2014-Jun-07 22:31N 38°42' W 009°10'0 0.0
2014-Jun-07 21:31N 38°42' W 009°10'0 0.0
2014-Jun-07 20:31N 38°42' W 009°10'0 0.0
2014-Jun-07 19:31N 38°42' W 009°10'0 0.0
2014-Jun-07 18:31N 38°42' W 009°10'0 0.0
2014-Jun-07 17:31N 38°42' W 009°10'0 0.0
2014-Jun-07 16:31N 38°42' W 009°10'0 0.0
2014-Jun-07 15:31N 38°42' W 009°10'0 0.0
2014-Jun-07 14:31N 38°42' W 009°10'0 0.0
2014-Jun-07 13:31N 38°42' W 009°10'0 0.0
2014-Jun-07 12:31N 38°42' W 009°10'0 0.0
2014-Jun-07 11:31N 38°42' W 009°10'0 0.0
2014-Jun-07 10:31N 38°42' W 009°10'0 0.0
2014-Jun-07 09:31N 38°42' W 009°10'0 0.0
2014-Jun-07 08:31N 38°42' W 009°10'0 0.0
2014-Jun-07 07:31N 38°42' W 009°10'0 0.0
2014-Jun-07 06:31N 38°42' W 009°10'0 0.0
2014-Jun-07 05:31N 38°42' W 009°10'0 0.0
2014-Jun-07 04:31N 38°42' W 009°10'0 0.0
2014-Jun-07 03:31N 38°42' W 009°10'0 0.0
2014-Jun-07 02:31N 38°42' W 009°10'0 0.0
2014-Jun-07 01:31N 38°42' W 009°10'0 0.0
2014-Jun-07 00:31N 38°42' W 009°10'0 0.0
2014-Jun-06 23:31N 38°42' W 009°10'0 0.0
2014-Jun-06 22:31N 38°42' W 009°10'0 0.0
2014-Jun-06 21:31N 38°42' W 009°10'0 0.0
2014-Jun-06 20:31N 38°42' W 009°10'0 0.0
2014-Jun-06 19:31N 38°42' W 009°10'0 0.0
2014-Jun-06 18:31N 38°42' W 009°10'0 0.0
2014-Jun-06 17:31N 38°42' W 009°10'0 0.0
2014-Jun-06 16:31N 38°42' W 009°10'0 0.0
2014-Jun-06 15:31N 38°42' W 009°10'0 0.0
2014-Jun-06 14:31N 38°42' W 009°10'0 0.0
2014-Jun-06 13:31N 38°42' W 009°10'0 0.0
2014-Jun-06 12:31N 38°42' W 009°10'0 0.0
2014-Jun-06 11:31N 38°42' W 009°10'0 0.0
2014-Jun-06 10:31N 38°42' W 009°10'0 0.0
2014-Jun-06 09:31N 38°42' W 009°10'0 0.0
2014-Jun-06 08:31N 38°42' W 009°10'0 0.0
2014-Jun-06 07:31N 38°42' W 009°10'0 0.0
2014-Jun-06 06:31N 38°42' W 009°10'0 0.0
2014-Jun-06 05:31N 38°42' W 009°10'0 0.0
2014-Jun-06 04:31N 38°42' W 009°10'0 0.0
2014-Jun-06 03:31N 38°42' W 009°10'0 0.0
2014-Jun-06 02:31N 38°42' W 009°10'0 0.0
2014-Jun-06 01:31N 38°42' W 009°10'0 0.0
2014-Jun-06 00:31N 38°42' W 009°10'0 0.0
2014-Jun-05 23:31N 38°42' W 009°10'0 0.0
2014-Jun-05 22:31N 38°42' W 009°10'0 0.0
2014-Jun-05 21:28N 38°42' W 009°10'0 0.0
2014-Jun-05 20:31N 38°42' W 009°10'0 0.0
2014-Jun-05 19:31N 38°42' W 009°10'0 0.0
2014-Jun-05 18:31N 38°42' W 009°10'0 0.0
2014-Jun-05 17:31N 38°42' W 009°10'0 0.0
2014-Jun-05 16:31N 38°42' W 009°10'0 0.0
2014-Jun-05 15:28N 38°42' W 009°10'0 0.0
2014-Jun-05 14:31N 38°42' W 009°10'0 0.0
2014-Jun-05 13:28N 38°42' W 009°10'0 0.0
2014-Jun-05 12:31N 38°42' W 009°10'0 0.0
2014-Jun-05 11:31N 38°42' W 009°10'0 0.0
2014-Jun-05 10:31N 38°42' W 009°10'0 0.0
2014-Jun-05 09:31N 38°42' W 009°10'0 0.0
2014-Jun-05 08:31N 38°42' W 009°10'0 0.0
2014-Jun-05 07:31N 38°42' W 009°10'0 0.0
2014-Jun-05 06:31N 38°42' W 009°10'0 0.0
2014-Jun-05 05:31N 38°42' W 009°10'0 0.0
2014-Jun-05 04:31N 38°42' W 009°10'0 0.0
2014-Jun-05 03:31N 38°42' W 009°10'0 0.0
2014-Jun-05 02:31N 38°42' W 009°10'0 0.0
2014-Jun-05 01:31N 38°42' W 009°10'0 0.0
2014-Jun-05 00:31N 38°42' W 009°10'0 0.0
2014-Jun-04 23:31N 38°42' W 009°10'0 0.0
2014-Jun-04 22:31N 38°42' W 009°10'0 0.0
2014-Jun-04 21:31N 38°42' W 009°10'0 0.0
2014-Jun-04 20:31N 38°42' W 009°10'0 0.0
2014-Jun-04 19:31N 38°42' W 009°10'0 0.0
2014-Jun-04 18:31N 38°42' W 009°10'0 0.0
2014-Jun-04 17:31N 38°42' W 009°10'0 0.0
2014-Jun-04 16:31N 38°42' W 009°10'0 0.0
2014-Jun-04 15:31N 38°42' W 009°10'0 0.0
2014-Jun-04 14:31N 38°42' W 009°10'0 0.0
2014-Jun-04 13:31N 38°42' W 009°10'0 0.0
2014-Jun-04 12:31N 38°42' W 009°10'0 0.0
2014-Jun-04 11:32N 38°42' W 009°10'0 0.0
2014-Jun-04 10:32N 38°42' W 009°10'0 0.0
2014-Jun-04 09:32N 38°42' W 009°10'0 0.0
2014-Jun-04 08:32N 38°42' W 009°10'0 0.0
2014-Jun-04 07:32N 38°42' W 009°10'0 0.0
2014-Jun-04 06:32N 38°42' W 009°10'0 0.0
2014-Jun-04 05:32N 38°42' W 009°10'0 0.0
2014-Jun-04 04:32N 38°42' W 009°10'0 0.0
2014-Jun-04 03:32N 38°42' W 009°10'0 0.0
2014-Jun-04 02:32N 38°42' W 009°10'0 0.0
2014-Jun-04 01:32N 38°42' W 009°10'0 0.0
2014-Jun-04 00:32N 38°42' W 009°10'0 0.0
2014-Jun-03 23:32N 38°42' W 009°10'0 0.0
2014-Jun-03 22:29N 38°42' W 009°10'0 0.0
2014-Jun-03 21:32N 38°42' W 009°10'0 0.0
2014-Jun-03 20:32N 38°42' W 009°10'0 0.0
2014-Jun-03 19:32N 38°42' W 009°10'0 0.0
2014-Jun-03 18:29N 38°42' W 009°10'0 0.0
2014-Jun-03 17:29N 38°42' W 009°10'0 0.0
2014-Jun-03 16:32N 38°42' W 009°10'0 0.0
2014-Jun-03 15:32N 38°42' W 009°10'0 0.0
2014-Jun-03 14:29N 38°42' W 009°10'0 0.0
2014-Jun-03 13:32N 38°42' W 009°10'0 0.0
2014-Jun-03 12:32N 38°42' W 009°10'  
Track history (hours):
 
Tides and Currents Weather Stations Pressure Air Temp Water Temp Dewpoint Dewpoint Depression Visibility Wind Speed Wind Dir Waves Ship Positions

Celtic Spirit

Last reported at 2014-Jun-13 11:33 UTC. Time now 2014-Aug-20 12:43 UTC.
Position N 37°31' W 008°56'.
Warning: this ship's position is months out of date.

Length 20 m.

Type: Pleasure craft. MMSI: 235010910.

Date/timePositionNaut miles runAvg speedWind from/ knotsBaromVisibWave heightAir tempDewpointWater temp
2014-Jun-13 11:33N 37°31' W 008°56'8 8.3
2014-Jun-13 10:33N 37°39' W 008°55'8 8.2
2014-Jun-13 09:33N 37°47' W 008°54'8 7.9
2014-Jun-13 08:33N 37°55' W 008°53'2 2.3
2014-Jun-13 07:31N 37°57' W 008°52'0 0.0
2014-Jun-13 06:31N 37°57' W 008°52'0 0.0
2014-Jun-13 05:28N 37°57' W 008°52'0 0.0
2014-Jun-13 04:31N 37°57' W 008°52'0 0.0
2014-Jun-13 03:31N 37°57' W 008°52'0 0.0
2014-Jun-13 02:31N 37°57' W 008°52'0 0.0
2014-Jun-13 01:31N 37°57' W 008°52'0 0.0
2014-Jun-13 00:31N 37°57' W 008°52'0 0.0
2014-Jun-12 23:31N 37°57' W 008°52'0 0.0
2014-Jun-12 22:31N 37°57' W 008°52'0 0.0
2014-Jun-12 21:28N 37°57' W 008°52'0 0.0
2014-Jun-12 20:31N 37°57' W 008°52'0 0.0
2014-Jun-12 19:31N 37°57' W 008°52'0 0.0
2014-Jun-12 18:31N 37°57' W 008°52'0 0.0
2014-Jun-12 17:31N 37°57' W 008°52'2 2.2
2014-Jun-12 16:32N 37°57' W 008°55'6 6.0
2014-Jun-12 15:33N 37°59' W 009°02'6 6.2
2014-Jun-12 14:33N 38°03' W 009°08'9 8.9
2014-Jun-12 13:33N 38°11' W 009°11'9 8.9
2014-Jun-12 12:33N 38°19' W 009°15'22 1.1
2014-Jun-11 17:34N 38°41' W 009°16'4 4.3
2014-Jun-11 16:33N 38°42' W 009°10'0 0.0
2014-Jun-11 15:33N 38°42' W 009°10'0 0.0
2014-Jun-11 14:33N 38°42' W 009°10'0 0.0
2014-Jun-11 13:33N 38°42' W 009°10'0 0.0
2014-Jun-11 12:33N 38°42' W 009°10'0 0.0
2014-Jun-11 11:33N 38°42' W 009°10'0 0.0
2014-Jun-11 10:33N 38°42' W 009°10'0 0.0
2014-Jun-11 09:33N 38°42' W 009°10'0 0.0
2014-Jun-11 08:33N 38°42' W 009°10'0 0.0
2014-Jun-11 07:30N 38°42' W 009°10'0 0.0
2014-Jun-11 06:33N 38°42' W 009°10'0 0.0
2014-Jun-11 05:33N 38°42' W 009°10'0 0.0
2014-Jun-11 04:33N 38°42' W 009°10'0 0.0
2014-Jun-11 03:33N 38°42' W 009°10'0 0.0
2014-Jun-11 02:33N 38°42' W 009°10'0 0.0
2014-Jun-11 01:33N 38°42' W 009°10'0 0.0
2014-Jun-11 00:33N 38°42' W 009°10'0 0.0
2014-Jun-10 23:33N 38°42' W 009°10'0 0.0
2014-Jun-10 22:30N 38°42' W 009°10'0 0.0
2014-Jun-10 21:33N 38°42' W 009°10'0 0.0
2014-Jun-10 20:33N 38°42' W 009°10'0 0.0
2014-Jun-10 19:33N 38°42' W 009°10'0 0.0
2014-Jun-10 18:33N 38°42' W 009°10'0 0.0
2014-Jun-10 17:33N 38°42' W 009°10'0 0.0
2014-Jun-10 16:33N 38°42' W 009°10'0 0.0
2014-Jun-10 15:33N 38°42' W 009°10'0 0.0
2014-Jun-10 14:33N 38°42' W 009°10'0 0.0
2014-Jun-10 13:33N 38°42' W 009°10'0 0.0
2014-Jun-10 12:33N 38°42' W 009°10'0 0.0
2014-Jun-10 11:33N 38°42' W 009°10'0 0.0
2014-Jun-10 10:33N 38°42' W 009°10'0 0.0
2014-Jun-10 09:33N 38°42' W 009°10'0 0.0
2014-Jun-10 08:33N 38°42' W 009°10'0 0.0
2014-Jun-10 07:33N 38°42' W 009°10'0 0.0
2014-Jun-10 06:33N 38°42' W 009°10'0 0.0
2014-Jun-10 03:33N 38°42' W 009°10'0 0.0
2014-Jun-10 02:33N 38°42' W 009°10'0 0.0
2014-Jun-10 01:33N 38°42' W 009°10'0 0.0
2014-Jun-10 00:33N 38°42' W 009°10'0 0.0
2014-Jun-09 23:33N 38°42' W 009°10'0 0.0
2014-Jun-09 22:33N 38°42' W 009°10'0 0.0
2014-Jun-09 21:33N 38°42' W 009°10'0 0.0
2014-Jun-09 20:33N 38°42' W 009°10'0 0.0
2014-Jun-09 19:33N 38°42' W 009°10'0 0.0
2014-Jun-09 18:33N 38°42' W 009°10'0 0.0
2014-Jun-09 17:33N 38°42' W 009°10'0 0.0
2014-Jun-09 16:33N 38°42' W 009°10'0 0.0
2014-Jun-09 15:33N 38°42' W 009°10'0 0.0
2014-Jun-09 14:33N 38°42' W 009°10'0 0.0
2014-Jun-09 13:33N 38°42' W 009°10'0 0.0
2014-Jun-09 12:33N 38°42' W 009°10'0 0.0
2014-Jun-09 11:33N 38°42' W 009°10'0 0.0
2014-Jun-09 10:33N 38°42' W 009°10'0 0.0
2014-Jun-09 09:34N 38°42' W 009°10'0 0.0
2014-Jun-09 08:33N 38°42' W 009°10'0 0.0
2014-Jun-09 07:33N 38°42' W 009°10'0 0.0
2014-Jun-09 06:34N 38°42' W 009°10'0 0.0
2014-Jun-09 05:34N 38°42' W 009°10'0 0.0
2014-Jun-09 04:34N 38°42' W 009°10'0 0.0
2014-Jun-09 03:34N 38°42' W 009°10'0 0.0
2014-Jun-09 02:34N 38°42' W 009°10'0 0.0
2014-Jun-09 01:31N 38°42' W 009°10'0 0.0
2014-Jun-09 00:31N 38°42' W 009°10'0 0.0
2014-Jun-08 23:31N 38°42' W 009°10'0 0.0
2014-Jun-08 22:31N 38°42' W 009°10'0 0.0
2014-Jun-08 21:31N 38°42' W 009°10'0 0.0
2014-Jun-08 20:31N 38°42' W 009°10'0 0.0
2014-Jun-08 19:31N 38°42' W 009°10'0 0.0
2014-Jun-08 18:31N 38°42' W 009°10'0 0.0
2014-Jun-08 17:31N 38°42' W 009°10'0 0.0
2014-Jun-08 16:31N 38°42' W 009°10'0 0.0
2014-Jun-08 15:31N 38°42' W 009°10'0 0.0
2014-Jun-08 14:31N 38°42' W 009°10'0 0.0
2014-Jun-08 13:28N 38°42' W 009°10'0 0.0
2014-Jun-08 12:31N 38°42' W 009°10'0 0.0
2014-Jun-08 11:31N 38°42' W 009°10'0 0.0
2014-Jun-08 10:31N 38°42' W 009°10'0 0.0
2014-Jun-08 09:31N 38°42' W 009°10'0 0.0
2014-Jun-08 08:28N 38°42' W 009°10'0 0.0
2014-Jun-08 07:31N 38°42' W 009°10'0 0.0
2014-Jun-08 06:31N 38°42' W 009°10'0 0.0
2014-Jun-08 05:31N 38°42' W 009°10'0 0.0
2014-Jun-08 04:31N 38°42' W 009°10'0 0.0
2014-Jun-08 03:31N 38°42' W 009°10'0 0.0
2014-Jun-08 02:31N 38°42' W 009°10'0 0.0
2014-Jun-08 01:31N 38°42' W 009°10'0 0.0
2014-Jun-08 00:31N 38°42' W 009°10'0 0.0
2014-Jun-07 23:31N 38°42' W 009°10'0 0.0
2014-Jun-07 22:31N 38°42' W 009°10'0 0.0
2014-Jun-07 21:31N 38°42' W 009°10'0 0.0
2014-Jun-07 20:31N 38°42' W 009°10'0 0.0
2014-Jun-07 19:31N 38°42' W 009°10'0 0.0
2014-Jun-07 18:31N 38°42' W 009°10'0 0.0
2014-Jun-07 17:31N 38°42' W 009°10'0 0.0
2014-Jun-07 16:31N 38°42' W 009°10'0 0.0
2014-Jun-07 15:31N 38°42' W 009°10'0 0.0
2014-Jun-07 14:31N 38°42' W 009°10'0 0.0
2014-Jun-07 13:31N 38°42' W 009°10'0 0.0
2014-Jun-07 12:31N 38°42' W 009°10'0 0.0
2014-Jun-07 11:31N 38°42' W 009°10'0 0.0
2014-Jun-07 10:31N 38°42' W 009°10'0 0.0
2014-Jun-07 09:31N 38°42' W 009°10'0 0.0
2014-Jun-07 08:31N 38°42' W 009°10'0 0.0
2014-Jun-07 07:31N 38°42' W 009°10'0 0.0
2014-Jun-07 06:31N 38°42' W 009°10'0 0.0
2014-Jun-07 05:31N 38°42' W 009°10'0 0.0
2014-Jun-07 04:31N 38°42' W 009°10'0 0.0
2014-Jun-07 03:31N 38°42' W 009°10'0 0.0
2014-Jun-07 02:31N 38°42' W 009°10'0 0.0
2014-Jun-07 01:31N 38°42' W 009°10'0 0.0
2014-Jun-07 00:31N 38°42' W 009°10'0 0.0
2014-Jun-06 23:31N 38°42' W 009°10'0 0.0
2014-Jun-06 22:31N 38°42' W 009°10'0 0.0
2014-Jun-06 21:31N 38°42' W 009°10'0 0.0
2014-Jun-06 20:31N 38°42' W 009°10'0 0.0
2014-Jun-06 19:31N 38°42' W 009°10'0 0.0
2014-Jun-06 18:31N 38°42' W 009°10'0 0.0
2014-Jun-06 17:31N 38°42' W 009°10'0 0.0
2014-Jun-06 16:31N 38°42' W 009°10'0 0.0
2014-Jun-06 15:31N 38°42' W 009°10'0 0.0
2014-Jun-06 14:31N 38°42' W 009°10'0 0.0
2014-Jun-06 13:31N 38°42' W 009°10'0 0.0
2014-Jun-06 12:31N 38°42' W 009°10'0 0.0
2014-Jun-06 11:31N 38°42' W 009°10'0 0.0
2014-Jun-06 10:31N 38°42' W 009°10'0 0.0
2014-Jun-06 09:31N 38°42' W 009°10'0 0.0
2014-Jun-06 08:31N 38°42' W 009°10'0 0.0
2014-Jun-06 07:31N 38°42' W 009°10'0 0.0
2014-Jun-06 06:31N 38°42' W 009°10'0 0.0
2014-Jun-06 05:31N 38°42' W 009°10'0 0.0
2014-Jun-06 04:31N 38°42' W 009°10'0 0.0
2014-Jun-06 03:31N 38°42' W 009°10'0 0.0
2014-Jun-06 02:31N 38°42' W 009°10'0 0.0
2014-Jun-06 01:31N 38°42' W 009°10'0 0.0
2014-Jun-06 00:31N 38°42' W 009°10'0 0.0
2014-Jun-05 23:31N 38°42' W 009°10'0 0.0
2014-Jun-05 22:31N 38°42' W 009°10'0 0.0
2014-Jun-05 21:28N 38°42' W 009°10'0 0.0
2014-Jun-05 20:31N 38°42' W 009°10'0 0.0
2014-Jun-05 19:31N 38°42' W 009°10'0 0.0
2014-Jun-05 18:31N 38°42' W 009°10'0 0.0
2014-Jun-05 17:31N 38°42' W 009°10'0 0.0
2014-Jun-05 16:31N 38°42' W 009°10'0 0.0
2014-Jun-05 15:28N 38°42' W 009°10'0 0.0
2014-Jun-05 14:31N 38°42' W 009°10'0 0.0
2014-Jun-05 13:28N 38°42' W 009°10'0 0.0
2014-Jun-05 12:31N 38°42' W 009°10'0 0.0
2014-Jun-05 11:31N 38°42' W 009°10'0 0.0
2014-Jun-05 10:31N 38°42' W 009°10'0 0.0
2014-Jun-05 09:31N 38°42' W 009°10'0 0.0
2014-Jun-05 08:31N 38°42' W 009°10'0 0.0
2014-Jun-05 07:31N 38°42' W 009°10'0 0.0
2014-Jun-05 06:31N 38°42' W 009°10'0 0.0
2014-Jun-05 05:31N 38°42' W 009°10'0 0.0
2014-Jun-05 04:31N 38°42' W 009°10'0 0.0
2014-Jun-05 03:31N 38°42' W 009°10'0 0.0
2014-Jun-05 02:31N 38°42' W 009°10'0 0.0
2014-Jun-05 01:31N 38°42' W 009°10'0 0.0
2014-Jun-05 00:31N 38°42' W 009°10'0 0.0
2014-Jun-04 23:31N 38°42' W 009°10'0 0.0
2014-Jun-04 22:31N 38°42' W 009°10'0 0.0
2014-Jun-04 21:31N 38°42' W 009°10'0 0.0
2014-Jun-04 20:31N 38°42' W 009°10'0 0.0
2014-Jun-04 19:31N 38°42' W 009°10'0 0.0
2014-Jun-04 18:31N 38°42' W 009°10'0 0.0
2014-Jun-04 17:31N 38°42' W 009°10'0 0.0
2014-Jun-04 16:31N 38°42' W 009°10'0 0.0
2014-Jun-04 15:31N 38°42' W 009°10'0 0.0
2014-Jun-04 14:31N 38°42' W 009°10'0 0.0
2014-Jun-04 13:31N 38°42' W 009°10'0 0.0
2014-Jun-04 12:31N 38°42' W 009°10'0 0.0
2014-Jun-04 11:32N 38°42' W 009°10'0 0.0
2014-Jun-04 10:32N 38°42' W 009°10'0 0.0
2014-Jun-04 09:32N 38°42' W 009°10'0 0.0
2014-Jun-04 08:32N 38°42' W 009°10'0 0.0
2014-Jun-04 07:32N 38°42' W 009°10'0 0.0
2014-Jun-04 06:32N 38°42' W 009°10'0 0.0
2014-Jun-04 05:32N 38°42' W 009°10'0 0.0
2014-Jun-04 04:32N 38°42' W 009°10'0 0.0
2014-Jun-04 03:32N 38°42' W 009°10'0 0.0
2014-Jun-04 02:32N 38°42' W 009°10'0 0.0
2014-Jun-04 01:32N 38°42' W 009°10'0 0.0
2014-Jun-04 00:32N 38°42' W 009°10'0 0.0
2014-Jun-03 23:32N 38°42' W 009°10'0 0.0
2014-Jun-03 22:29N 38°42' W 009°10'0 0.0
2014-Jun-03 21:32N 38°42' W 009°10'0 0.0
2014-Jun-03 20:32N 38°42' W 009°10'0 0.0
2014-Jun-03 19:32N 38°42' W 009°10'0 0.0
2014-Jun-03 18:29N 38°42' W 009°10'0 0.0
2014-Jun-03 17:29N 38°42' W 009°10'0 0.0
2014-Jun-03 16:32N 38°42' W 009°10'0 0.0
2014-Jun-03 15:32N 38°42' W 009°10'0 0.0
2014-Jun-03 14:29N 38°42' W 009°10'0 0.0
2014-Jun-03 13:32N 38°42' W 009°10'0 0.0
2014-Jun-03 12:32N 38°42' W 009°10'  

Dump ship's entire track history